Terminal Aerodrome Forecast
Issued by NWS

Home | Current Version | Previous Version | Graphics & Text | Print | Product List | Glossary On
Versions: 1 2 3 4 5 6 7 8 9 10 11 12 13 14 15 16 17
234
FTUS43 KIWX 051728
TAFSBN
TAF
KSBN 051728Z 0518/0618 18008KT P6SM OVC008
     FM060200 12006KT 2SM BR BKN015
     FM060600 12007KT 3/4SM BR BKN015
     FM061600 12005KT P6SM BKN015=

USA.gov is the U.S. government's official web portal to all federal, state and local government web resources and services.